sensor_id;sensor_type;location;lat;lon;timestamp;P1;durP1;ratioP1;P2;durP2;ratioP2
39982;SDS011;25670;44.782;10.356;2023-02-18T00:01:19;8.77;;;5.45;;
39982;SDS011;25670;44.782;10.356;2023-02-18T00:03:46;6.53;;;5.72;;
39982;SDS011;25670;44.782;10.356;2023-02-18T00:06:14;5.68;;;5.28;;
39982;SDS011;25670;44.782;10.356;2023-02-18T00:08:46;5.80;;;5.20;;
39982;SDS011;25670;44.782;10.356;2023-02-18T00:11:13;6.28;;;4.60;;
39982;SDS011;25670;44.782;10.356;2023-02-18T00:13:40;5.18;;;4.78;;
39982;SDS011;25670;44.782;10.356;2023-02-18T00:16:10;7.43;;;4.95;;
39982;SDS011;25670;44.782;10.356;2023-02-18T00:18:37;5.97;;;4.90;;
39982;SDS011;25670;44.782;10.356;2023-02-18T00:21:04;5.55;;;5.05;;
39982;SDS011;25670;44.782;10.356;2023-02-18T00:23:32;10.13;;;4.70;;
39982;SDS011;25670;44.782;10.356;2023-02-18T00:26:03;5.57;;;5.07;;
39982;SDS011;25670;44.782;10.356;2023-02-18T00:28:31;6.20;;;5.78;;
39982;SDS011;25670;44.782;10.356;2023-02-18T00:30:59;6.55;;;5.93;;
39982;SDS011;25670;44.782;10.356;2023-02-18T00:33:30;6.50;;;6.00;;
39982;SDS011;25670;44.782;10.356;2023-02-18T00:36:05;7.78;;;6.93;;
39982;SDS011;25670;44.782;10.356;2023-02-18T00:38:34;16.60;;;13.05;;
39982;SDS011;25670;44.782;10.356;2023-02-18T00:41:01;25.45;;;16.13;;
39982;SDS011;25670;44.782;10.356;2023-02-18T00:43:28;23.45;;;15.88;;
39982;SDS011;25670;44.782;10.356;2023-02-18T00:45:54;23.20;;;16.08;;
39982;SDS011;25670;44.782;10.356;2023-02-18T00:48:21;26.00;;;16.33;;
39982;SDS011;25670;44.782;10.356;2023-02-18T00:50:48;28.60;;;16.65;;
39982;SDS011;25670;44.782;10.356;2023-02-18T00:53:14;31.95;;;16.10;;
39982;SDS011;25670;44.782;10.356;2023-02-18T00:55:41;26.55;;;17.45;;
39982;SDS011;25670;44.782;10.356;2023-02-18T00:58:09;24.95;;;15.88;;
39982;SDS011;25670;44.782;10.356;2023-02-18T01:00:36;26.48;;;16.45;;
39982;SDS011;25670;44.782;10.356;2023-02-18T01:03:03;23.98;;;16.10;;
39982;SDS011;25670;44.782;10.356;2023-02-18T01:05:30;27.52;;;16.83;;
39982;SDS011;25670;44.782;10.356;2023-02-18T01:07:57;25.30;;;16.77;;
39982;SDS011;25670;44.782;10.356;2023-02-18T01:10:24;24.35;;;12.95;;
39982;SDS011;25670;44.782;10.356;2023-02-18T01:12:50;17.58;;;11.73;;
39982;SDS011;25670;44.782;10.356;2023-02-18T01:15:17;11.88;;;10.57;;
39982;SDS011;25670;44.782;10.356;2023-02-18T01:17:44;12.10;;;10.07;;
39982;SDS011;25670;44.782;10.356;2023-02-18T01:20:11;12.75;;;10.13;;
39982;SDS011;25670;44.782;10.356;2023-02-18T01:22:41;12.30;;;9.82;;
39982;SDS011;25670;44.782;10.356;2023-02-18T01:25:09;10.93;;;9.80;;
39982;SDS011;25670;44.782;10.356;2023-02-18T01:27:36;11.68;;;10.30;;
39982;SDS011;25670;44.782;10.356;2023-02-18T01:30:03;12.65;;;10.40;;
39982;SDS011;25670;44.782;10.356;2023-02-18T01:32:30;13.38;;;10.30;;
39982;SDS011;25670;44.782;10.356;2023-02-18T01:34:59;11.65;;;10.27;;
39982;SDS011;25670;44.782;10.356;2023-02-18T01:37:29;13.23;;;10.82;;
39982;SDS011;25670;44.782;10.356;2023-02-18T01:39:55;12.60;;;10.63;;
39982;SDS011;25670;44.782;10.356;2023-02-18T01:42:27;12.50;;;10.82;;
39982;SDS011;25670;44.782;10.356;2023-02-18T01:45:32;11.27;;;10.18;;
39982;SDS011;25670;44.782;10.356;2023-02-18T01:50:43;11.38;;;10.10;;
39982;SDS011;25670;44.782;10.356;2023-02-18T01:53:13;13.95;;;10.75;;
39982;SDS011;25670;44.782;10.356;2023-02-18T01:55:41;13.00;;;11.32;;
39982;SDS011;25670;44.782;10.356;2023-02-18T01:58:08;14.45;;;10.18;;
39982;SDS011;25670;44.782;10.356;2023-02-18T02:00:34;13.15;;;10.65;;
39982;SDS011;25670;44.782;10.356;2023-02-18T02:03:01;11.93;;;10.13;;
39982;SDS011;25670;44.782;10.356;2023-02-18T02:05:32;13.05;;;10.07;;
39982;SDS011;25670;44.782;10.356;2023-02-18T02:07:59;12.30;;;10.82;;
39982;SDS011;25670;44.782;10.356;2023-02-18T02:10:33;22.88;;;14.77;;
39982;SDS011;25670;44.782;10.356;2023-02-18T02:13:20;19.33;;;12.52;;
39982;SDS011;25670;44.782;10.356;2023-02-18T02:16:11;17.08;;;12.48;;
39982;SDS011;25670;44.782;10.356;2023-02-18T02:18:49;14.93;;;11.95;;
39982;SDS011;25670;44.782;10.356;2023-02-18T02:29:38;17.45;;;10.35;;
39982;SDS011;25670;44.782;10.356;2023-02-18T02:37:48;15.38;;;12.10;;
39982;SDS011;25670;44.782;10.356;2023-02-18T02:48:14;19.08;;;12.52;;
39982;SDS011;25670;44.782;10.356;2023-02-18T02:53:46;15.07;;;11.32;;
39982;SDS011;25670;44.782;10.356;2023-02-18T02:56:16;17.35;;;13.05;;
39982;SDS011;25670;44.782;10.356;2023-02-18T02:58:56;26.48;;;16.20;;
39982;SDS011;25670;44.782;10.356;2023-02-18T03:12:15;21.40;;;14.25;;
39982;SDS011;25670;44.782;10.356;2023-02-18T03:15:07;22.92;;;13.32;;
39982;SDS011;25670;44.782;10.356;2023-02-18T03:23:02;20.73;;;14.18;;
39982;SDS011;25670;44.782;10.356;2023-02-18T03:25:32;19.80;;;14.00;;
39982;SDS011;25670;44.782;10.356;2023-02-18T03:28:04;21.58;;;14.30;;
39982;SDS011;25670;44.782;10.356;2023-02-18T03:30:41;17.08;;;13.32;;
39982;SDS011;25670;44.782;10.356;2023-02-18T03:33:13;25.25;;;15.43;;
39982;SDS011;25670;44.782;10.356;2023-02-18T03:35:43;20.08;;;14.13;;
39982;SDS011;25670;44.782;10.356;2023-02-18T03:38:15;25.05;;;15.05;;
39982;SDS011;25670;44.782;10.356;2023-02-18T03:40:46;23.05;;;14.45;;
39982;SDS011;25670;44.782;10.356;2023-02-18T03:43:13;15.48;;;13.15;;
39982;SDS011;25670;44.782;10.356;2023-02-18T03:45:40;19.60;;;11.90;;
39982;SDS011;25670;44.782;10.356;2023-02-18T03:48:06;16.92;;;13.60;;
39982;SDS011;25670;44.782;10.356;2023-02-18T03:50:33;17.00;;;12.57;;
39982;SDS011;25670;44.782;10.356;2023-02-18T03:52:59;18.30;;;12.80;;
39982;SDS011;25670;44.782;10.356;2023-02-18T03:55:26;18.25;;;11.80;;
39982;SDS011;25670;44.782;10.356;2023-02-18T03:57:53;15.27;;;10.82;;
39982;SDS011;25670;44.782;10.356;2023-02-18T04:00:19;20.10;;;10.43;;
39982;SDS011;25670;44.782;10.356;2023-02-18T04:02:46;12.68;;;9.68;;
39982;SDS011;25670;44.782;10.356;2023-02-18T04:05:12;11.25;;;9.88;;
39982;SDS011;25670;44.782;10.356;2023-02-18T04:07:39;11.98;;;9.80;;
39982;SDS011;25670;44.782;10.356;2023-02-18T04:10:05;10.52;;;9.18;;
39982;SDS011;25670;44.782;10.356;2023-02-18T04:12:33;13.68;;;9.18;;
39982;SDS011;25670;44.782;10.356;2023-02-18T04:14:59;9.68;;;8.70;;
39982;SDS011;25670;44.782;10.356;2023-02-18T04:17:25;10.25;;;7.75;;
39982;SDS011;25670;44.782;10.356;2023-02-18T04:19:52;9.13;;;8.25;;
39982;SDS011;25670;44.782;10.356;2023-02-18T04:22:18;10.07;;;7.88;;
39982;SDS011;25670;44.782;10.356;2023-02-18T04:24:45;7.70;;;7.05;;
39982;SDS011;25670;44.782;10.356;2023-02-18T04:27:11;8.63;;;7.03;;
39982;SDS011;25670;44.782;10.356;2023-02-18T04:29:38;8.02;;;7.20;;
39982;SDS011;25670;44.782;10.356;2023-02-18T04:32:05;9.30;;;6.25;;
39982;SDS011;25670;44.782;10.356;2023-02-18T04:34:31;9.82;;;7.38;;
39982;SDS011;25670;44.782;10.356;2023-02-18T04:36:58;7.45;;;6.78;;
39982;SDS011;25670;44.782;10.356;2023-02-18T04:39:24;10.25;;;7.03;;
39982;SDS011;25670;44.782;10.356;2023-02-18T04:41:51;8.90;;;7.35;;
39982;SDS011;25670;44.782;10.356;2023-02-18T04:44:17;8.05;;;7.35;;
39982;SDS011;25670;44.782;10.356;2023-02-18T04:46:44;8.40;;;7.68;;
39982;SDS011;25670;44.782;10.356;2023-02-18T04:49:10;8.05;;;7.25;;
39982;SDS011;25670;44.782;10.356;2023-02-18T04:51:37;8.07;;;7.25;;
39982;SDS011;25670;44.782;10.356;2023-02-18T04:54:04;7.18;;;6.68;;
39982;SDS011;25670;44.782;10.356;2023-02-18T04:56:30;8.00;;;7.20;;
39982;SDS011;25670;44.782;10.356;2023-02-18T04:58:56;7.70;;;6.97;;
39982;SDS011;25670;44.782;10.356;2023-02-18T05:01:23;10.07;;;6.97;;
39982;SDS011;25670;44.782;10.356;2023-02-18T05:03:50;7.93;;;6.72;;
39982;SDS011;25670;44.782;10.356;2023-02-18T05:06:16;8.18;;;7.30;;
39982;SDS011;25670;44.782;10.356;2023-02-18T05:08:42;8.02;;;6.88;;
39982;SDS011;25670;44.782;10.356;2023-02-18T05:11:09;7.22;;;6.63;;
39982;SDS011;25670;44.782;10.356;2023-02-18T05:13:36;6.93;;;6.30;;
39982;SDS011;25670;44.782;10.356;2023-02-18T05:16:02;10.70;;;6.75;;
39982;SDS011;25670;44.782;10.356;2023-02-18T05:18:29;7.68;;;7.07;;
39982;SDS011;25670;44.782;10.356;2023-02-18T05:20:55;6.78;;;6.15;;
39982;SDS011;25670;44.782;10.356;2023-02-18T05:23:22;7.15;;;6.28;;
39982;SDS011;25670;44.782;10.356;2023-02-18T05:25:50;7.97;;;7.10;;
39982;SDS011;25670;44.782;10.356;2023-02-18T05:28:16;8.77;;;6.88;;
39982;SDS011;25670;44.782;10.356;2023-02-18T05:30:43;8.63;;;6.22;;
39982;SDS011;25670;44.782;10.356;2023-02-18T05:33:09;8.45;;;6.05;;
39982;SDS011;25670;44.782;10.356;2023-02-18T05:35:36;7.68;;;6.95;;
39982;SDS011;25670;44.782;10.356;2023-02-18T05:38:02;6.80;;;6.18;;
39982;SDS011;25670;44.782;10.356;2023-02-18T05:40:29;6.80;;;6.30;;
39982;SDS011;25670;44.782;10.356;2023-02-18T05:42:55;8.68;;;6.00;;
39982;SDS011;25670;44.782;10.356;2023-02-18T05:45:22;7.93;;;6.85;;
39982;SDS011;25670;44.782;10.356;2023-02-18T05:47:48;9.55;;;7.15;;
39982;SDS011;25670;44.782;10.356;2023-02-18T05:50:15;10.52;;;8.15;;
39982;SDS011;25670;44.782;10.356;2023-02-18T05:52:41;7.80;;;7.10;;
39982;SDS011;25670;44.782;10.356;2023-02-18T05:55:08;7.68;;;6.85;;
39982;SDS011;25670;44.782;10.356;2023-02-18T05:57:34;8.15;;;6.53;;
39982;SDS011;25670;44.782;10.356;2023-02-18T06:00:01;8.15;;;6.68;;
39982;SDS011;25670;44.782;10.356;2023-02-18T06:02:30;11.07;;;7.35;;
39982;SDS011;25670;44.782;10.356;2023-02-18T06:04:57;7.05;;;6.35;;
39982;SDS011;25670;44.782;10.356;2023-02-18T06:07:25;7.57;;;5.50;;
39982;SDS011;25670;44.782;10.356;2023-02-18T06:09:51;9.27;;;6.63;;
39982;SDS011;25670;44.782;10.356;2023-02-18T06:12:18;7.70;;;6.38;;
39982;SDS011;25670;44.782;10.356;2023-02-18T06:14:44;7.10;;;6.50;;
39982;SDS011;25670;44.782;10.356;2023-02-18T06:17:11;8.30;;;6.25;;
39982;SDS011;25670;44.782;10.356;2023-02-18T06:19:39;7.03;;;5.93;;
39982;SDS011;25670;44.782;10.356;2023-02-18T06:22:06;7.13;;;6.25;;
39982;SDS011;25670;44.782;10.356;2023-02-18T06:24:32;7.15;;;6.55;;
39982;SDS011;25670;44.782;10.356;2023-02-18T06:26:59;7.90;;;6.53;;
39982;SDS011;25670;44.782;10.356;2023-02-18T06:29:26;8.73;;;7.32;;
39982;SDS011;25670;44.782;10.356;2023-02-18T06:31:54;9.45;;;5.85;;
39982;SDS011;25670;44.782;10.356;2023-02-18T06:34:21;8.57;;;5.65;;
39982;SDS011;25670;44.782;10.356;2023-02-18T06:36:47;11.43;;;6.43;;
39982;SDS011;25670;44.782;10.356;2023-02-18T06:39:14;6.88;;;6.25;;
39982;SDS011;25670;44.782;10.356;2023-02-18T06:41:40;6.35;;;5.75;;
39982;SDS011;25670;44.782;10.356;2023-02-18T06:44:07;16.85;;;6.40;;
39982;SDS011;25670;44.782;10.356;2023-02-18T06:46:33;9.23;;;6.47;;
39982;SDS011;25670;44.782;10.356;2023-02-18T06:49:00;6.75;;;6.15;;
39982;SDS011;25670;44.782;10.356;2023-02-18T06:51:26;10.85;;;5.90;;
39982;SDS011;25670;44.782;10.356;2023-02-18T06:53:53;13.50;;;6.18;;
39982;SDS011;25670;44.782;10.356;2023-02-18T06:56:19;10.70;;;6.68;;
39982;SDS011;25670;44.782;10.356;2023-02-18T06:58:46;8.95;;;6.95;;
39982;SDS011;25670;44.782;10.356;2023-02-18T07:01:12;10.48;;;6.47;;
39982;SDS011;25670;44.782;10.356;2023-02-18T07:03:39;7.72;;;6.95;;
39982;SDS011;25670;44.782;10.356;2023-02-18T07:06:05;8.45;;;6.90;;
39982;SDS011;25670;44.782;10.356;2023-02-18T07:08:32;14.65;;;7.32;;
39982;SDS011;25670;44.782;10.356;2023-02-18T07:11:00;11.15;;;7.10;;
39982;SDS011;25670;44.782;10.356;2023-02-18T07:13:26;8.90;;;7.43;;
39982;SDS011;25670;44.782;10.356;2023-02-18T07:15:53;9.45;;;7.65;;
39982;SDS011;25670;44.782;10.356;2023-02-18T07:18:19;7.93;;;6.60;;
39982;SDS011;25670;44.782;10.356;2023-02-18T07:20:46;8.05;;;6.72;;
39982;SDS011;25670;44.782;10.356;2023-02-18T07:23:12;13.18;;;7.45;;
39982;SDS011;25670;44.782;10.356;2023-02-18T07:25:39;11.65;;;7.45;;
39982;SDS011;25670;44.782;10.356;2023-02-18T07:28:05;7.93;;;7.22;;
39982;SDS011;25670;44.782;10.356;2023-02-18T07:30:32;11.02;;;7.82;;
39982;SDS011;25670;44.782;10.356;2023-02-18T07:32:58;12.90;;;7.05;;
39982;SDS011;25670;44.782;10.356;2023-02-18T07:35:25;14.65;;;7.53;;
39982;SDS011;25670;44.782;10.356;2023-02-18T07:37:51;8.00;;;6.15;;
39982;SDS011;25670;44.782;10.356;2023-02-18T07:40:19;12.50;;;7.82;;
39982;SDS011;25670;44.782;10.356;2023-02-18T07:42:46;8.55;;;7.22;;
39982;SDS011;25670;44.782;10.356;2023-02-18T07:45:13;14.43;;;7.78;;
39982;SDS011;25670;44.782;10.356;2023-02-18T07:47:39;10.35;;;8.23;;
39982;SDS011;25670;44.782;10.356;2023-02-18T07:50:07;12.93;;;8.23;;
39982;SDS011;25670;44.782;10.356;2023-02-18T07:52:34;11.23;;;7.22;;
39982;SDS011;25670;44.782;10.356;2023-02-18T07:55:00;8.32;;;7.53;;
39982;SDS011;25670;44.782;10.356;2023-02-18T07:57:27;7.75;;;7.05;;
39982;SDS011;25670;44.782;10.356;2023-02-18T07:59:53;10.85;;;7.53;;
39982;SDS011;25670;44.782;10.356;2023-02-18T08:02:21;8.48;;;7.68;;
39982;SDS011;25670;44.782;10.356;2023-02-18T08:04:48;7.88;;;6.80;;
39982;SDS011;25670;44.782;10.356;2023-02-18T08:07:15;8.30;;;7.50;;
39982;SDS011;25670;44.782;10.356;2023-02-18T08:09:43;12.73;;;8.00;;
39982;SDS011;25670;44.782;10.356;2023-02-18T08:12:10;7.45;;;6.75;;
39982;SDS011;25670;44.782;10.356;2023-02-18T08:14:37;8.05;;;7.13;;
39982;SDS011;25670;44.782;10.356;2023-02-18T08:17:03;13.35;;;7.18;;
39982;SDS011;25670;44.782;10.356;2023-02-18T08:19:29;9.82;;;7.70;;
39982;SDS011;25670;44.782;10.356;2023-02-18T08:21:59;10.00;;;7.60;;
39982;SDS011;25670;44.782;10.356;2023-02-18T08:24:27;11.23;;;6.63;;
39982;SDS011;25670;44.782;10.356;2023-02-18T08:26:53;13.70;;;7.68;;
39982;SDS011;25670;44.782;10.356;2023-02-18T08:29:20;8.75;;;7.97;;
39982;SDS011;25670;44.782;10.356;2023-02-18T08:31:47;9.02;;;8.15;;
39982;SDS011;25670;44.782;10.356;2023-02-18T08:34:13;8.05;;;7.45;;
39982;SDS011;25670;44.782;10.356;2023-02-18T08:36:40;8.90;;;8.00;;
39982;SDS011;25670;44.782;10.356;2023-02-18T08:39:06;12.75;;;8.52;;
39982;SDS011;25670;44.782;10.356;2023-02-18T08:41:33;11.88;;;9.55;;
39982;SDS011;25670;44.782;10.356;2023-02-18T08:43:59;10.25;;;8.68;;
39982;SDS011;25670;44.782;10.356;2023-02-18T08:46:25;11.85;;;10.48;;
39982;SDS011;25670;44.782;10.356;2023-02-18T08:48:52;13.70;;;11.35;;
39982;SDS011;25670;44.782;10.356;2023-02-18T08:51:20;13.85;;;10.57;;
39982;SDS011;25670;44.782;10.356;2023-02-18T08:53:47;19.23;;;10.88;;
39982;SDS011;25670;44.782;10.356;2023-02-18T08:56:14;14.60;;;10.55;;
39982;SDS011;25670;44.782;10.356;2023-02-18T08:58:42;22.23;;;12.90;;
39982;SDS011;25670;44.782;10.356;2023-02-18T09:01:09;15.30;;;10.88;;
39982;SDS011;25670;44.782;10.356;2023-02-18T09:03:37;14.50;;;10.07;;
39982;SDS011;25670;44.782;10.356;2023-02-18T09:06:03;14.27;;;11.82;;
39982;SDS011;25670;44.782;10.356;2023-02-18T09:08:30;12.50;;;11.18;;
39982;SDS011;25670;44.782;10.356;2023-02-18T09:10:57;14.93;;;11.38;;
39982;SDS011;25670;44.782;10.356;2023-02-18T09:13:25;16.10;;;13.00;;
39982;SDS011;25670;44.782;10.356;2023-02-18T09:15:59;13.65;;;12.13;;
39982;SDS011;25670;44.782;10.356;2023-02-18T09:18:28;13.50;;;12.07;;
39982;SDS011;25670;44.782;10.356;2023-02-18T09:20:55;20.60;;;13.95;;
39982;SDS011;25670;44.782;10.356;2023-02-18T09:23:23;18.95;;;13.05;;
39982;SDS011;25670;44.782;10.356;2023-02-18T09:25:50;18.05;;;13.93;;
39982;SDS011;25670;44.782;10.356;2023-02-18T09:28:17;21.27;;;14.05;;
39982;SDS011;25670;44.782;10.356;2023-02-18T09:30:43;23.85;;;14.68;;
39982;SDS011;25670;44.782;10.356;2023-02-18T09:33:10;23.38;;;13.77;;
39982;SDS011;25670;44.782;10.356;2023-02-18T09:35:40;23.27;;;16.50;;
39982;SDS011;25670;44.782;10.356;2023-02-18T09:38:11;24.50;;;14.95;;
39982;SDS011;25670;44.782;10.356;2023-02-18T09:40:44;27.25;;;15.93;;
39982;SDS011;25670;44.782;10.356;2023-02-18T09:43:28;21.48;;;15.18;;
39982;SDS011;25670;44.782;10.356;2023-02-18T09:46:01;31.05;;;17.70;;
39982;SDS011;25670;44.782;10.356;2023-02-18T09:48:33;29.38;;;17.50;;
39982;SDS011;25670;44.782;10.356;2023-02-18T09:51:00;35.25;;;17.90;;
39982;SDS011;25670;44.782;10.356;2023-02-18T09:53:27;28.13;;;18.98;;
39982;SDS011;25670;44.782;10.356;2023-02-18T09:55:54;35.05;;;19.95;;
39982;SDS011;25670;44.782;10.356;2023-02-18T09:58:29;28.83;;;19.83;;
39982;SDS011;25670;44.782;10.356;2023-02-18T10:01:02;30.20;;;19.10;;
39982;SDS011;25670;44.782;10.356;2023-02-18T10:03:48;32.80;;;20.55;;
39982;SDS011;25670;44.782;10.356;2023-02-18T10:06:24;34.60;;;19.67;;
39982;SDS011;25670;44.782;10.356;2023-02-18T10:08:54;35.13;;;20.15;;
39982;SDS011;25670;44.782;10.356;2023-02-18T10:11:29;30.13;;;20.15;;
39982;SDS011;25670;44.782;10.356;2023-02-18T10:14:10;31.25;;;20.52;;
39982;SDS011;25670;44.782;10.356;2023-02-18T10:16:38;25.98;;;18.48;;
39982;SDS011;25670;44.782;10.356;2023-02-18T10:21:47;27.63;;;19.45;;
39982;SDS011;25670;44.782;10.356;2023-02-18T10:26:51;33.35;;;20.60;;
39982;SDS011;25670;44.782;10.356;2023-02-18T10:29:19;29.92;;;20.52;;
39982;SDS011;25670;44.782;10.356;2023-02-18T10:32:11;33.58;;;20.73;;
39982;SDS011;25670;44.782;10.356;2023-02-18T10:34:46;30.50;;;19.95;;
39982;SDS011;25670;44.782;10.356;2023-02-18T10:39:59;27.25;;;18.40;;
39982;SDS011;25670;44.782;10.356;2023-02-18T10:42:40;28.58;;;19.20;;
39982;SDS011;25670;44.782;10.356;2023-02-18T10:45:48;23.90;;;17.88;;
39982;SDS011;25670;44.782;10.356;2023-02-18T10:51:22;24.77;;;18.25;;
39982;SDS011;25670;44.782;10.356;2023-02-18T10:53:52;27.15;;;18.30;;
39982;SDS011;25670;44.782;10.356;2023-02-18T10:58:59;25.73;;;18.38;;
39982;SDS011;25670;44.782;10.356;2023-02-18T11:01:52;28.80;;;19.48;;
39982;SDS011;25670;44.782;10.356;2023-02-18T11:04:22;26.95;;;19.25;;
39982;SDS011;25670;44.782;10.356;2023-02-18T11:06:52;28.60;;;19.48;;
39982;SDS011;25670;44.782;10.356;2023-02-18T11:11:51;31.40;;;20.20;;
39982;SDS011;25670;44.782;10.356;2023-02-18T11:14:44;26.13;;;20.08;;
39982;SDS011;25670;44.782;10.356;2023-02-18T11:19:42;32.13;;;21.02;;
39982;SDS011;25670;44.782;10.356;2023-02-18T11:22:19;37.15;;;21.42;;
39982;SDS011;25670;44.782;10.356;2023-02-18T11:24:47;38.53;;;22.23;;
39982;SDS011;25670;44.782;10.356;2023-02-18T11:27:22;37.90;;;22.33;;
39982;SDS011;25670;44.782;10.356;2023-02-18T11:30:20;28.88;;;21.27;;
39982;SDS011;25670;44.782;10.356;2023-02-18T11:32:59;31.05;;;20.67;;
39982;SDS011;25670;44.782;10.356;2023-02-18T11:35:50;32.28;;;22.58;;
39982;SDS011;25670;44.782;10.356;2023-02-18T11:38:28;32.28;;;22.80;;
39982;SDS011;25670;44.782;10.356;2023-02-18T11:41:18;34.15;;;21.58;;
39982;SDS011;25670;44.782;10.356;2023-02-18T11:43:53;28.65;;;20.63;;
39982;SDS011;25670;44.782;10.356;2023-02-18T11:46:21;34.60;;;20.52;;
39982;SDS011;25670;44.782;10.356;2023-02-18T11:48:50;29.45;;;20.85;;
39982;SDS011;25670;44.782;10.356;2023-02-18T11:51:20;31.20;;;20.65;;
39982;SDS011;25670;44.782;10.356;2023-02-18T11:56:19;30.70;;;20.75;;
39982;SDS011;25670;44.782;10.356;2023-02-18T11:58:46;28.50;;;21.25;;
39982;SDS011;25670;44.782;10.356;2023-02-18T12:01:14;28.23;;;20.98;;
39982;SDS011;25670;44.782;10.356;2023-02-18T12:03:58;30.17;;;21.35;;
39982;SDS011;25670;44.782;10.356;2023-02-18T12:09:48;30.77;;;20.20;;
39982;SDS011;25670;44.782;10.356;2023-02-18T12:12:05;29.20;;;19.90;;
39982;SDS011;25670;44.782;10.356;2023-02-18T12:14:39;27.05;;;20.77;;
39982;SDS011;25670;44.782;10.356;2023-02-18T12:20:02;23.85;;;19.13;;
39982;SDS011;25670;44.782;10.356;2023-02-18T12:22:44;26.48;;;19.52;;
39982;SDS011;25670;44.782;10.356;2023-02-18T12:25:24;28.38;;;20.17;;
39982;SDS011;25670;44.782;10.356;2023-02-18T12:35:54;25.27;;;19.02;;
39982;SDS011;25670;44.782;10.356;2023-02-18T13:00:02;20.52;;;18.33;;
39982;SDS011;25670;44.782;10.356;2023-02-18T13:05:47;25.13;;;18.00;;
39982;SDS011;25670;44.782;10.356;2023-02-18T13:16:27;18.65;;;16.70;;
39982;SDS011;25670;44.782;10.356;2023-02-18T13:19:00;20.67;;;17.05;;
39982;SDS011;25670;44.782;10.356;2023-02-18T13:21:32;18.90;;;16.77;;
39982;SDS011;25670;44.782;10.356;2023-02-18T13:24:01;19.88;;;17.80;;
39982;SDS011;25670;44.782;10.356;2023-02-18T13:26:34;23.40;;;17.33;;
39982;SDS011;25670;44.782;10.356;2023-02-18T13:32:25;19.77;;;18.02;;
39982;SDS011;25670;44.782;10.356;2023-02-18T13:34:57;20.17;;;17.75;;
39982;SDS011;25670;44.782;10.356;2023-02-18T13:40:22;22.02;;;18.52;;
39982;SDS011;25670;44.782;10.356;2023-02-18T13:42:54;20.00;;;16.95;;
39982;SDS011;25670;44.782;10.356;2023-02-18T13:46:01;18.30;;;16.48;;
39982;SDS011;25670;44.782;10.356;2023-02-18T13:51:31;23.15;;;17.33;;
39982;SDS011;25670;44.782;10.356;2023-02-18T13:56:43;20.67;;;18.33;;
39982;SDS011;25670;44.782;10.356;2023-02-18T14:02:22;20.58;;;17.48;;
39982;SDS011;25670;44.782;10.356;2023-02-18T14:05:24;19.85;;;17.83;;
39982;SDS011;25670;44.782;10.356;2023-02-18T14:08:14;19.10;;;17.08;;
39982;SDS011;25670;44.782;10.356;2023-02-18T14:13:38;20.60;;;17.73;;
39982;SDS011;25670;44.782;10.356;2023-02-18T14:16:15;20.38;;;18.15;;
39982;SDS011;25670;44.782;10.356;2023-02-18T14:24:15;19.92;;;17.85;;
39982;SDS011;25670;44.782;10.356;2023-02-18T14:27:32;18.83;;;17.05;;
39982;SDS011;25670;44.782;10.356;2023-02-18T14:30:03;17.98;;;16.08;;
39982;SDS011;25670;44.782;10.356;2023-02-18T14:32:32;20.00;;;17.63;;
39982;SDS011;25670;44.782;10.356;2023-02-18T14:35:03;19.27;;;17.48;;
39982;SDS011;25670;44.782;10.356;2023-02-18T14:51:06;19.98;;;17.13;;
39982;SDS011;25670;44.782;10.356;2023-02-18T14:53:42;18.83;;;17.17;;
39982;SDS011;25670;44.782;10.356;2023-02-18T14:56:11;20.70;;;18.58;;
39982;SDS011;25670;44.782;10.356;2023-02-18T14:58:51;24.88;;;18.52;;
39982;SDS011;25670;44.782;10.356;2023-02-18T15:01:24;17.00;;;15.45;;
39982;SDS011;25670;44.782;10.356;2023-02-18T15:03:53;20.40;;;16.17;;
39982;SDS011;25670;44.782;10.356;2023-02-18T15:06:28;18.23;;;16.40;;
39982;SDS011;25670;44.782;10.356;2023-02-18T15:08:56;18.90;;;16.95;;
39982;SDS011;25670;44.782;10.356;2023-02-18T15:11:24;17.17;;;15.82;;
39982;SDS011;25670;44.782;10.356;2023-02-18T15:14:16;17.30;;;15.80;;
39982;SDS011;25670;44.782;10.356;2023-02-18T15:16:44;18.40;;;16.48;;
39982;SDS011;25670;44.782;10.356;2023-02-18T15:19:16;19.52;;;17.48;;
39982;SDS011;25670;44.782;10.356;2023-02-18T15:21:46;18.52;;;16.58;;
39982;SDS011;25670;44.782;10.356;2023-02-18T15:24:32;24.50;;;15.90;;
39982;SDS011;25670;44.782;10.356;2023-02-18T15:27:12;17.95;;;16.10;;
39982;SDS011;25670;44.782;10.356;2023-02-18T15:29:39;19.25;;;17.10;;
39982;SDS011;25670;44.782;10.356;2023-02-18T15:32:19;21.30;;;16.83;;
39982;SDS011;25670;44.782;10.356;2023-02-18T15:34:49;17.55;;;15.75;;
39982;SDS011;25670;44.782;10.356;2023-02-18T15:37:17;17.48;;;15.75;;
39982;SDS011;25670;44.782;10.356;2023-02-18T15:39:46;17.60;;;15.80;;
39982;SDS011;25670;44.782;10.356;2023-02-18T15:44:43;20.98;;;18.38;;
39982;SDS011;25670;44.782;10.356;2023-02-18T15:47:12;19.50;;;17.15;;
39982;SDS011;25670;44.782;10.356;2023-02-18T15:49:44;23.50;;;18.85;;
39982;SDS011;25670;44.782;10.356;2023-02-18T15:52:12;21.45;;;18.42;;
39982;SDS011;25670;44.782;10.356;2023-02-18T15:54:39;21.60;;;19.35;;
39982;SDS011;25670;44.782;10.356;2023-02-18T15:57:08;23.00;;;19.98;;
39982;SDS011;25670;44.782;10.356;2023-02-18T15:59:53;21.85;;;17.77;;
39982;SDS011;25670;44.782;10.356;2023-02-18T16:02:22;20.25;;;18.02;;
39982;SDS011;25670;44.782;10.356;2023-02-18T16:04:59;28.85;;;19.63;;
39982;SDS011;25670;44.782;10.356;2023-02-18T16:07:27;21.58;;;19.05;;
39982;SDS011;25670;44.782;10.356;2023-02-18T16:12:34;24.58;;;18.40;;
39982;SDS011;25670;44.782;10.356;2023-02-18T16:15:04;24.63;;;19.38;;
39982;SDS011;25670;44.782;10.356;2023-02-18T16:17:30;25.20;;;18.90;;
39982;SDS011;25670;44.782;10.356;2023-02-18T16:19:58;22.38;;;18.67;;
39982;SDS011;25670;44.782;10.356;2023-02-18T16:27:47;28.15;;;19.75;;
39982;SDS011;25670;44.782;10.356;2023-02-18T16:30:24;25.35;;;19.95;;
39982;SDS011;25670;44.782;10.356;2023-02-18T16:32:52;28.00;;;19.10;;
39982;SDS011;25670;44.782;10.356;2023-02-18T16:35:19;21.98;;;18.25;;
39982;SDS011;25670;44.782;10.356;2023-02-18T16:37:46;26.23;;;20.02;;
39982;SDS011;25670;44.782;10.356;2023-02-18T16:40:22;19.27;;;16.38;;
39982;SDS011;25670;44.782;10.356;2023-02-18T16:42:59;19.33;;;17.33;;
39982;SDS011;25670;44.782;10.356;2023-02-18T16:48:00;7.72;;;7.20;;
39982;SDS011;25670;44.782;10.356;2023-02-18T16:50:27;10.02;;;7.22;;
39982;SDS011;25670;44.782;10.356;2023-02-18T16:52:56;3.97;;;3.72;;
39982;SDS011;25670;44.782;10.356;2023-02-18T16:55:24;3.35;;;3.03;;
39982;SDS011;25670;44.782;10.356;2023-02-18T16:57:53;5.97;;;3.00;;
39982;SDS011;25670;44.782;10.356;2023-02-18T17:00:20;5.45;;;3.47;;
39982;SDS011;25670;44.782;10.356;2023-02-18T17:02:47;3.08;;;2.78;;
39982;SDS011;25670;44.782;10.356;2023-02-18T17:05:19;5.53;;;3.08;;
39982;SDS011;25670;44.782;10.356;2023-02-18T17:10:13;5.15;;;3.10;;
39982;SDS011;25670;44.782;10.356;2023-02-18T17:12:40;3.53;;;2.95;;
39982;SDS011;25670;44.782;10.356;2023-02-18T17:15:12;4.85;;;3.55;;
39982;SDS011;25670;44.782;10.356;2023-02-18T17:17:46;3.35;;;3.15;;
39982;SDS011;25670;44.782;10.356;2023-02-18T17:20:12;4.28;;;3.10;;